sensor_id;sensor_type;location;lat;lon;timestamp;temperature;humidity
4312;DHT22;2169;49.086;9.284;2022-10-23T00:01:25;12.70;72.00
4312;DHT22;2169;49.086;9.284;2022-10-23T00:03:56;12.70;72.10
4312;DHT22;2169;49.086;9.284;2022-10-23T00:06:23;12.70;72.10
4312;DHT22;2169;49.086;9.284;2022-10-23T00:08:50;12.60;72.00
4312;DHT22;2169;49.086;9.284;2022-10-23T00:11:20;12.60;72.10
4312;DHT22;2169;49.086;9.284;2022-10-23T00:13:47;12.60;72.00
4312;DHT22;2169;49.086;9.284;2022-10-23T00:16:14;12.50;72.00
4312;DHT22;2169;49.086;9.284;2022-10-23T00:18:41;12.50;72.00
4312;DHT22;2169;49.086;9.284;2022-10-23T00:21:11;12.50;72.10
4312;DHT22;2169;49.086;9.284;2022-10-23T00:23:38;12.50;72.20
4312;DHT22;2169;49.086;9.284;2022-10-23T00:26:06;12.50;72.30
4312;DHT22;2169;49.086;9.284;2022-10-23T00:28:35;12.40;72.20
4312;DHT22;2169;49.086;9.284;2022-10-23T00:31:03;12.40;72.20
4312;DHT22;2169;49.086;9.284;2022-10-23T00:33:31;12.40;72.30
4312;DHT22;2169;49.086;9.284;2022-10-23T00:35:58;12.40;72.40
4312;DHT22;2169;49.086;9.284;2022-10-23T00:38:26;12.40;72.50
4312;DHT22;2169;49.086;9.284;2022-10-23T00:40:53;12.40;72.50
4312;DHT22;2169;49.086;9.284;2022-10-23T00:43:26;12.30;72.40
4312;DHT22;2169;49.086;9.284;2022-10-23T00:45:53;12.30;72.50
4312;DHT22;2169;49.086;9.284;2022-10-23T00:48:20;12.30;72.50
4312;DHT22;2169;49.086;9.284;2022-10-23T00:50:47;12.30;72.50
4312;DHT22;2169;49.086;9.284;2022-10-23T00:53:16;12.30;72.60
4312;DHT22;2169;49.086;9.284;2022-10-23T00:55:46;12.30;72.70
4312;DHT22;2169;49.086;9.284;2022-10-23T00:58:15;12.20;72.60
4312;DHT22;2169;49.086;9.284;2022-10-23T01:00:45;12.20;72.60
4312;DHT22;2169;49.086;9.284;2022-10-23T01:03:13;12.20;72.70
4312;DHT22;2169;49.086;9.284;2022-10-23T01:05:46;12.20;72.70
4312;DHT22;2169;49.086;9.284;2022-10-23T01:08:19;12.20;72.70
4312;DHT22;2169;49.086;9.284;2022-10-23T01:10:52;12.20;72.70
4312;DHT22;2169;49.086;9.284;2022-10-23T01:13:26;12.20;72.70
4312;DHT22;2169;49.086;9.284;2022-10-23T01:16:00;12.10;72.60
4312;DHT22;2169;49.086;9.284;2022-10-23T01:18:35;12.10;72.60
4312;DHT22;2169;49.086;9.284;2022-10-23T01:21:06;12.10;72.60
4312;DHT22;2169;49.086;9.284;2022-10-23T01:23:59;12.10;72.60
4312;DHT22;2169;49.086;9.284;2022-10-23T01:26:37;12.10;72.60
4312;DHT22;2169;49.086;9.284;2022-10-23T01:29:13;12.00;72.50
4312;DHT22;2169;49.086;9.284;2022-10-23T01:31:52;12.00;72.80
4312;DHT22;2169;49.086;9.284;2022-10-23T01:34:24;12.00;72.60
4312;DHT22;2169;49.086;9.284;2022-10-23T01:36:54;12.00;72.70
4312;DHT22;2169;49.086;9.284;2022-10-23T01:39:24;11.90;72.50
4312;DHT22;2169;49.086;9.284;2022-10-23T01:41:55;11.90;72.80
4312;DHT22;2169;49.086;9.284;2022-10-23T01:44:28;11.90;72.60
4312;DHT22;2169;49.086;9.284;2022-10-23T01:46:57;11.90;72.60
4312;DHT22;2169;49.086;9.284;2022-10-23T01:49:24;11.90;72.60
4312;DHT22;2169;49.086;9.284;2022-10-23T01:51:54;11.80;72.50
4312;DHT22;2169;49.086;9.284;2022-10-23T01:54:24;11.80;72.60
4312;DHT22;2169;49.086;9.284;2022-10-23T01:56:52;11.70;72.50
4312;DHT22;2169;49.086;9.284;2022-10-23T01:59:22;11.70;72.50
4312;DHT22;2169;49.086;9.284;2022-10-23T02:01:53;11.70;72.70
4312;DHT22;2169;49.086;9.284;2022-10-23T02:04:33;11.70;72.70
4312;DHT22;2169;49.086;9.284;2022-10-23T02:07:00;11.70;72.70
4312;DHT22;2169;49.086;9.284;2022-10-23T02:09:27;11.70;72.70
4312;DHT22;2169;49.086;9.284;2022-10-23T02:11:58;11.70;72.80
4312;DHT22;2169;49.086;9.284;2022-10-23T02:14:37;11.60;72.80
4312;DHT22;2169;49.086;9.284;2022-10-23T02:17:13;11.60;72.80
4312;DHT22;2169;49.086;9.284;2022-10-23T02:19:45;11.60;72.90
4312;DHT22;2169;49.086;9.284;2022-10-23T02:22:15;11.60;72.90
4312;DHT22;2169;49.086;9.284;2022-10-23T02:24:49;11.60;73.00
4312;DHT22;2169;49.086;9.284;2022-10-23T02:27:20;11.60;73.00
4312;DHT22;2169;49.086;9.284;2022-10-23T02:29:52;11.50;72.90
4312;DHT22;2169;49.086;9.284;2022-10-23T02:32:24;11.50;73.00
4312;DHT22;2169;49.086;9.284;2022-10-23T02:34:52;11.50;73.10
4312;DHT22;2169;49.086;9.284;2022-10-23T02:37:19;11.50;73.10
4312;DHT22;2169;49.086;9.284;2022-10-23T02:39:46;11.50;73.20
4312;DHT22;2169;49.086;9.284;2022-10-23T02:42:16;11.50;73.30
4312;DHT22;2169;49.086;9.284;2022-10-23T02:44:54;11.50;73.40
4312;DHT22;2169;49.086;9.284;2022-10-23T02:47:31;11.50;73.50
4312;DHT22;2169;49.086;9.284;2022-10-23T02:50:06;11.50;73.50
4312;DHT22;2169;49.086;9.284;2022-10-23T02:52:39;11.50;73.50
4312;DHT22;2169;49.086;9.284;2022-10-23T02:55:15;11.50;73.60
4312;DHT22;2169;49.086;9.284;2022-10-23T02:57:46;11.50;73.60
4312;DHT22;2169;49.086;9.284;2022-10-23T03:00:16;11.40;73.60
4312;DHT22;2169;49.086;9.284;2022-10-23T03:02:48;11.50;73.70
4312;DHT22;2169;49.086;9.284;2022-10-23T03:05:21;11.50;73.70
4312;DHT22;2169;49.086;9.284;2022-10-23T03:07:49;11.40;73.70
4312;DHT22;2169;49.086;9.284;2022-10-23T03:10:17;11.40;73.70
4312;DHT22;2169;49.086;9.284;2022-10-23T03:12:44;11.40;73.70
4312;DHT22;2169;49.086;9.284;2022-10-23T03:15:12;11.40;73.70
4312;DHT22;2169;49.086;9.284;2022-10-23T03:17:39;11.40;73.70
4312;DHT22;2169;49.086;9.284;2022-10-23T03:20:08;11.40;73.70
4312;DHT22;2169;49.086;9.284;2022-10-23T03:22:35;11.40;73.80
4312;DHT22;2169;49.086;9.284;2022-10-23T03:25:03;11.40;73.80
4312;DHT22;2169;49.086;9.284;2022-10-23T03:27:30;11.40;73.90
4312;DHT22;2169;49.086;9.284;2022-10-23T03:29:57;11.40;73.90
4312;DHT22;2169;49.086;9.284;2022-10-23T03:32:24;11.40;74.00
4312;DHT22;2169;49.086;9.284;2022-10-23T03:34:50;11.40;74.00
4312;DHT22;2169;49.086;9.284;2022-10-23T03:37:18;11.40;74.00
4312;DHT22;2169;49.086;9.284;2022-10-23T03:39:45;11.40;74.10
4312;DHT22;2169;49.086;9.284;2022-10-23T03:42:12;11.40;74.10
4312;DHT22;2169;49.086;9.284;2022-10-23T03:44:39;11.30;74.00
4312;DHT22;2169;49.086;9.284;2022-10-23T03:47:05;11.30;74.00
4312;DHT22;2169;49.086;9.284;2022-10-23T03:49:34;11.30;74.10
4312;DHT22;2169;49.086;9.284;2022-10-23T03:52:01;11.30;74.10
4312;DHT22;2169;49.086;9.284;2022-10-23T03:54:29;11.30;74.10
4312;DHT22;2169;49.086;9.284;2022-10-23T03:56:56;11.30;74.10
4312;DHT22;2169;49.086;9.284;2022-10-23T03:59:23;11.30;74.20
4312;DHT22;2169;49.086;9.284;2022-10-23T04:01:50;11.30;74.20
4312;DHT22;2169;49.086;9.284;2022-10-23T04:04:16;11.30;74.30
4312;DHT22;2169;49.086;9.284;2022-10-23T04:06:43;11.30;74.30
4312;DHT22;2169;49.086;9.284;2022-10-23T04:09:10;11.30;74.30
4312;DHT22;2169;49.086;9.284;2022-10-23T04:11:38;11.30;74.30
4312;DHT22;2169;49.086;9.284;2022-10-23T04:14:05;11.30;74.30
4312;DHT22;2169;49.086;9.284;2022-10-23T04:16:32;11.30;74.30
4312;DHT22;2169;49.086;9.284;2022-10-23T04:18:58;11.30;74.30
4312;DHT22;2169;49.086;9.284;2022-10-23T04:21:25;11.20;74.30
4312;DHT22;2169;49.086;9.284;2022-10-23T04:23:52;11.20;74.30
4312;DHT22;2169;49.086;9.284;2022-10-23T04:26:18;11.20;74.30
4312;DHT22;2169;49.086;9.284;2022-10-23T04:28:47;11.20;74.30
4312;DHT22;2169;49.086;9.284;2022-10-23T04:31:13;11.20;74.30
4312;DHT22;2169;49.086;9.284;2022-10-23T04:33:40;11.20;74.30
4312;DHT22;2169;49.086;9.284;2022-10-23T04:36:08;11.20;74.30
4312;DHT22;2169;49.086;9.284;2022-10-23T04:38:35;11.20;74.30
4312;DHT22;2169;49.086;9.284;2022-10-23T04:41:01;11.20;74.40
4312;DHT22;2169;49.086;9.284;2022-10-23T04:43:28;11.10;74.30
4312;DHT22;2169;49.086;9.284;2022-10-23T04:45:56;11.10;74.30
4312;DHT22;2169;49.086;9.284;2022-10-23T04:48:23;11.10;74.30
4312;DHT22;2169;49.086;9.284;2022-10-23T04:50:57;11.10;74.30
4312;DHT22;2169;49.086;9.284;2022-10-23T04:53:24;11.10;74.40
4312;DHT22;2169;49.086;9.284;2022-10-23T04:55:52;11.00;74.30
4312;DHT22;2169;49.086;9.284;2022-10-23T04:58:19;11.10;74.40
4312;DHT22;2169;49.086;9.284;2022-10-23T05:00:46;11.10;74.50
4312;DHT22;2169;49.086;9.284;2022-10-23T05:03:15;11.00;74.40
4312;DHT22;2169;49.086;9.284;2022-10-23T05:05:43;11.00;74.50
4312;DHT22;2169;49.086;9.284;2022-10-23T05:08:10;11.00;74.40
4312;DHT22;2169;49.086;9.284;2022-10-23T05:10:37;11.00;74.40
4312;DHT22;2169;49.086;9.284;2022-10-23T05:13:04;11.00;74.40
4312;DHT22;2169;49.086;9.284;2022-10-23T05:15:31;11.00;74.50
4312;DHT22;2169;49.086;9.284;2022-10-23T05:18:00;11.00;74.50
4312;DHT22;2169;49.086;9.284;2022-10-23T05:20:32;11.00;74.50
4312;DHT22;2169;49.086;9.284;2022-10-23T05:23:01;11.00;74.50
4312;DHT22;2169;49.086;9.284;2022-10-23T05:25:29;11.00;74.50
4312;DHT22;2169;49.086;9.284;2022-10-23T05:27:55;11.00;74.50
4312;DHT22;2169;49.086;9.284;2022-10-23T05:30:22;10.90;74.40
4312;DHT22;2169;49.086;9.284;2022-10-23T05:32:49;11.00;74.60
4312;DHT22;2169;49.086;9.284;2022-10-23T05:35:18;10.90;74.60
4312;DHT22;2169;49.086;9.284;2022-10-23T05:37:50;10.90;74.60
4312;DHT22;2169;49.086;9.284;2022-10-23T05:40:18;10.90;74.70
4312;DHT22;2169;49.086;9.284;2022-10-23T05:42:45;11.00;74.80
4312;DHT22;2169;49.086;9.284;2022-10-23T05:45:12;10.90;74.80
4312;DHT22;2169;49.086;9.284;2022-10-23T05:47:39;10.90;74.80
4312;DHT22;2169;49.086;9.284;2022-10-23T05:50:06;10.90;74.90
4312;DHT22;2169;49.086;9.284;2022-10-23T05:52:33;11.00;75.10
4312;DHT22;2169;49.086;9.284;2022-10-23T05:55:01;11.00;75.10
4312;DHT22;2169;49.086;9.284;2022-10-23T05:57:31;11.00;75.10
4312;DHT22;2169;49.086;9.284;2022-10-23T05:59:58;11.00;75.10
4312;DHT22;2169;49.086;9.284;2022-10-23T06:02:25;10.90;75.00
4312;DHT22;2169;49.086;9.284;2022-10-23T06:04:52;10.90;75.00
4312;DHT22;2169;49.086;9.284;2022-10-23T06:07:23;11.00;75.80
4312;DHT22;2169;49.086;9.284;2022-10-23T06:09:50;10.90;75.10
4312;DHT22;2169;49.086;9.284;2022-10-23T06:12:18;10.90;75.00
4312;DHT22;2169;49.086;9.284;2022-10-23T06:14:45;10.90;75.00
4312;DHT22;2169;49.086;9.284;2022-10-23T06:17:12;10.90;75.10
4312;DHT22;2169;49.086;9.284;2022-10-23T06:19:39;10.90;75.20
4312;DHT22;2169;49.086;9.284;2022-10-23T06:22:05;10.90;75.20
4312;DHT22;2169;49.086;9.284;2022-10-23T06:24:32;10.90;75.20
4312;DHT22;2169;49.086;9.284;2022-10-23T06:26:59;10.90;75.30
4312;DHT22;2169;49.086;9.284;2022-10-23T06:29:27;10.90;75.30
4312;DHT22;2169;49.086;9.284;2022-10-23T06:31:53;10.90;75.30
4312;DHT22;2169;49.086;9.284;2022-10-23T06:34:20;10.90;75.30
4312;DHT22;2169;49.086;9.284;2022-10-23T06:36:47;10.90;76.00
4312;DHT22;2169;49.086;9.284;2022-10-23T06:39:14;11.00;75.50
4312;DHT22;2169;49.086;9.284;2022-10-23T06:41:40;11.00;75.60
4312;DHT22;2169;49.086;9.284;2022-10-23T06:44:08;11.00;75.70
4312;DHT22;2169;49.086;9.284;2022-10-23T06:46:37;11.00;75.80
4312;DHT22;2169;49.086;9.284;2022-10-23T06:49:03;11.00;75.80
4312;DHT22;2169;49.086;9.284;2022-10-23T06:51:30;11.00;75.90
4312;DHT22;2169;49.086;9.284;2022-10-23T06:53:57;11.10;76.00
4312;DHT22;2169;49.086;9.284;2022-10-23T06:56:24;11.10;76.00
4312;DHT22;2169;49.086;9.284;2022-10-23T06:58:54;11.10;76.10
4312;DHT22;2169;49.086;9.284;2022-10-23T07:01:21;11.10;76.20
4312;DHT22;2169;49.086;9.284;2022-10-23T07:03:49;11.20;76.30
4312;DHT22;2169;49.086;9.284;2022-10-23T07:06:16;11.20;76.40
4312;DHT22;2169;49.086;9.284;2022-10-23T07:08:43;11.20;76.40
4312;DHT22;2169;49.086;9.284;2022-10-23T07:11:11;11.20;76.50
4312;DHT22;2169;49.086;9.284;2022-10-23T07:13:38;11.30;76.60
4312;DHT22;2169;49.086;9.284;2022-10-23T07:16:10;11.30;76.70
4312;DHT22;2169;49.086;9.284;2022-10-23T07:18:37;11.40;76.90
4312;DHT22;2169;49.086;9.284;2022-10-23T07:21:06;11.40;77.00
4312;DHT22;2169;49.086;9.284;2022-10-23T07:23:32;11.40;77.00
4312;DHT22;2169;49.086;9.284;2022-10-23T07:26:03;11.40;77.00
4312;DHT22;2169;49.086;9.284;2022-10-23T07:28:30;11.50;77.20
4312;DHT22;2169;49.086;9.284;2022-10-23T07:30:58;11.50;77.20
4312;DHT22;2169;49.086;9.284;2022-10-23T07:33:25;11.60;77.50
4312;DHT22;2169;49.086;9.284;2022-10-23T07:35:51;11.60;77.50
4312;DHT22;2169;49.086;9.284;2022-10-23T07:38:20;11.60;77.50
4312;DHT22;2169;49.086;9.284;2022-10-23T07:40:46;11.70;77.70
4312;DHT22;2169;49.086;9.284;2022-10-23T07:43:13;11.70;77.70
4312;DHT22;2169;49.086;9.284;2022-10-23T07:45:41;11.70;77.80
4312;DHT22;2169;49.086;9.284;2022-10-23T07:48:08;11.80;77.90
4312;DHT22;2169;49.086;9.284;2022-10-23T07:50:36;11.80;77.90
4312;DHT22;2169;49.086;9.284;2022-10-23T07:53:03;11.90;78.10
4312;DHT22;2169;49.086;9.284;2022-10-23T07:55:31;11.90;78.10
4312;DHT22;2169;49.086;9.284;2022-10-23T07:57:58;12.00;78.30
4312;DHT22;2169;49.086;9.284;2022-10-23T08:00:24;12.00;78.40
4312;DHT22;2169;49.086;9.284;2022-10-23T08:02:51;12.10;78.50
4312;DHT22;2169;49.086;9.284;2022-10-23T08:05:18;12.20;78.70
4312;DHT22;2169;49.086;9.284;2022-10-23T08:07:45;12.20;78.80
4312;DHT22;2169;49.086;9.284;2022-10-23T08:10:12;12.30;79.00
4312;DHT22;2169;49.086;9.284;2022-10-23T08:12:40;12.40;79.10
4312;DHT22;2169;49.086;9.284;2022-10-23T08:15:08;12.50;79.30
4312;DHT22;2169;49.086;9.284;2022-10-23T08:17:34;12.60;79.50
4312;DHT22;2169;49.086;9.284;2022-10-23T08:20:01;12.60;79.50
4312;DHT22;2169;49.086;9.284;2022-10-23T08:22:28;12.70;79.70
4312;DHT22;2169;49.086;9.284;2022-10-23T08:24:55;12.80;79.90
4312;DHT22;2169;49.086;9.284;2022-10-23T08:27:21;12.90;80.10
4312;DHT22;2169;49.086;9.284;2022-10-23T08:29:49;13.10;80.20
4312;DHT22;2169;49.086;9.284;2022-10-23T08:32:16;13.20;80.40
4312;DHT22;2169;49.086;9.284;2022-10-23T08:34:43;13.30;80.50
4312;DHT22;2169;49.086;9.284;2022-10-23T08:37:10;13.40;80.60
4312;DHT22;2169;49.086;9.284;2022-10-23T08:39:36;13.50;80.70
4312;DHT22;2169;49.086;9.284;2022-10-23T08:42:03;13.60;80.80
4312;DHT22;2169;49.086;9.284;2022-10-23T08:44:32;13.80;80.90
4312;DHT22;2169;49.086;9.284;2022-10-23T08:47:05;13.90;81.00
4312;DHT22;2169;49.086;9.284;2022-10-23T08:49:38;14.10;81.00
4312;DHT22;2169;49.086;9.284;2022-10-23T08:52:20;14.20;81.00
4312;DHT22;2169;49.086;9.284;2022-10-23T08:54:59;14.40;81.10
4312;DHT22;2169;49.086;9.284;2022-10-23T08:57:31;14.50;80.90
4312;DHT22;2169;49.086;9.284;2022-10-23T09:00:00;14.70;80.90
4312;DHT22;2169;49.086;9.284;2022-10-23T09:02:36;14.80;80.80
4312;DHT22;2169;49.086;9.284;2022-10-23T09:05:10;15.00;80.70
4312;DHT22;2169;49.086;9.284;2022-10-23T09:07:45;15.10;80.50
4312;DHT22;2169;49.086;9.284;2022-10-23T09:10:22;15.20;80.30
4312;DHT22;2169;49.086;9.284;2022-10-23T09:12:51;15.40;80.30
4312;DHT22;2169;49.086;9.284;2022-10-23T09:15:24;15.50;80.20
4312;DHT22;2169;49.086;9.284;2022-10-23T09:17:57;15.60;80.10
4312;DHT22;2169;49.086;9.284;2022-10-23T09:20:27;15.80;80.10
4312;DHT22;2169;49.086;9.284;2022-10-23T09:23:00;15.90;79.80
4312;DHT22;2169;49.086;9.284;2022-10-23T09:25:32;16.10;79.70
4312;DHT22;2169;49.086;9.284;2022-10-23T09:28:00;16.20;79.50
4312;DHT22;2169;49.086;9.284;2022-10-23T09:30:29;16.30;79.20
4312;DHT22;2169;49.086;9.284;2022-10-23T09:32:58;16.50;79.00
4312;DHT22;2169;49.086;9.284;2022-10-23T09:35:27;16.60;78.70
4312;DHT22;2169;49.086;9.284;2022-10-23T09:37:54;16.70;78.30
4312;DHT22;2169;49.086;9.284;2022-10-23T09:40:26;16.90;78.10
4312;DHT22;2169;49.086;9.284;2022-10-23T09:42:57;17.00;77.80
4312;DHT22;2169;49.086;9.284;2022-10-23T09:45:26;17.20;77.60
4312;DHT22;2169;49.086;9.284;2022-10-23T09:48:11;17.30;77.20
4312;DHT22;2169;49.086;9.284;2022-10-23T09:50:46;17.50;76.70
4312;DHT22;2169;49.086;9.284;2022-10-23T09:53:16;17.60;76.30
4312;DHT22;2169;49.086;9.284;2022-10-23T09:55:50;17.70;76.00
4312;DHT22;2169;49.086;9.284;2022-10-23T09:58:20;17.90;75.60
4312;DHT22;2169;49.086;9.284;2022-10-23T10:00:47;18.00;75.30
4312;DHT22;2169;49.086;9.284;2022-10-23T10:03:20;18.10;74.70
4312;DHT22;2169;49.086;9.284;2022-10-23T10:05:54;18.20;74.10
4312;DHT22;2169;49.086;9.284;2022-10-23T10:08:25;18.30;73.50
4312;DHT22;2169;49.086;9.284;2022-10-23T10:10:59;18.50;73.10
4312;DHT22;2169;49.086;9.284;2022-10-23T10:13:35;18.50;72.50
4312;DHT22;2169;49.086;9.284;2022-10-23T10:16:10;18.70;72.10
4312;DHT22;2169;49.086;9.284;2022-10-23T10:18:45;18.80;71.60
4312;DHT22;2169;49.086;9.284;2022-10-23T10:21:17;18.90;71.20
4312;DHT22;2169;49.086;9.284;2022-10-23T10:23:51;19.00;70.70
4312;DHT22;2169;49.086;9.284;2022-10-23T10:26:35;19.10;70.30
4312;DHT22;2169;49.086;9.284;2022-10-23T10:29:13;19.20;69.80
4312;DHT22;2169;49.086;9.284;2022-10-23T10:31:51;19.30;69.50
4312;DHT22;2169;49.086;9.284;2022-10-23T10:34:28;19.40;69.20
4312;DHT22;2169;49.086;9.284;2022-10-23T10:37:03;19.40;68.90
4312;DHT22;2169;49.086;9.284;2022-10-23T10:39:38;19.50;68.70
4312;DHT22;2169;49.086;9.284;2022-10-23T10:42:26;19.60;68.50
4312;DHT22;2169;49.086;9.284;2022-10-23T10:45:05;19.60;68.10
4312;DHT22;2169;49.086;9.284;2022-10-23T10:47:38;19.70;68.00
4312;DHT22;2169;49.086;9.284;2022-10-23T10:50:16;19.80;67.80
4312;DHT22;2169;49.086;9.284;2022-10-23T10:52:50;19.90;67.50
4312;DHT22;2169;49.086;9.284;2022-10-23T10:55:25;20.00;67.20
4312;DHT22;2169;49.086;9.284;2022-10-23T10:57:58;20.00;66.90
4312;DHT22;2169;49.086;9.284;2022-10-23T11:00:28;20.10;66.80
4312;DHT22;2169;49.086;9.284;2022-10-23T11:03:01;20.20;66.60
4312;DHT22;2169;49.086;9.284;2022-10-23T11:05:32;20.30;66.20
4312;DHT22;2169;49.086;9.284;2022-10-23T11:08:06;20.30;65.60
4312;DHT22;2169;49.086;9.284;2022-10-23T11:10:34;20.40;65.40
4312;DHT22;2169;49.086;9.284;2022-10-23T11:13:01;20.50;65.00
4312;DHT22;2169;49.086;9.284;2022-10-23T11:15:38;20.50;64.70
4312;DHT22;2169;49.086;9.284;2022-10-23T11:18:11;20.60;64.30
4312;DHT22;2169;49.086;9.284;2022-10-23T11:20:53;20.60;64.10
4312;DHT22;2169;49.086;9.284;2022-10-23T11:26:40;20.80;63.90
4312;DHT22;2169;49.086;9.284;2022-10-23T11:29:28;20.80;63.80
4312;DHT22;2169;49.086;9.284;2022-10-23T11:32:14;20.90;63.60
4312;DHT22;2169;49.086;9.284;2022-10-23T11:35:03;20.90;63.50
4312;DHT22;2169;49.086;9.284;2022-10-23T11:37:44;21.10;63.60
4312;DHT22;2169;49.086;9.284;2022-10-23T11:40:23;21.00;63.50
4312;DHT22;2169;49.086;9.284;2022-10-23T11:42:52;21.10;63.70
4312;DHT22;2169;49.086;9.284;2022-10-23T11:45:43;21.10;63.50
4312;DHT22;2169;49.086;9.284;2022-10-23T11:48:20;21.20;63.40
4312;DHT22;2169;49.086;9.284;2022-10-23T11:50:52;21.20;63.40
4312;DHT22;2169;49.086;9.284;2022-10-23T11:53:39;21.30;63.50
4312;DHT22;2169;49.086;9.284;2022-10-23T11:56:25;21.30;63.30
4312;DHT22;2169;49.086;9.284;2022-10-23T11:59:38;21.30;63.30
4312;DHT22;2169;49.086;9.284;2022-10-23T12:03:13;21.40;63.40
4312;DHT22;2169;49.086;9.284;2022-10-23T12:05:54;21.40;63.40
4312;DHT22;2169;49.086;9.284;2022-10-23T12:08:38;21.40;63.40
4312;DHT22;2169;49.086;9.284;2022-10-23T12:11:43;21.50;63.50
4312;DHT22;2169;49.086;9.284;2022-10-23T12:14:38;21.50;63.40
4312;DHT22;2169;49.086;9.284;2022-10-23T12:17:28;21.50;63.50
4312;DHT22;2169;49.086;9.284;2022-10-23T12:20:03;21.60;63.50
4312;DHT22;2169;49.086;9.284;2022-10-23T12:22:40;21.60;63.60
4312;DHT22;2169;49.086;9.284;2022-10-23T12:25:12;21.70;63.80
4312;DHT22;2169;49.086;9.284;2022-10-23T12:27:43;21.70;63.70
4312;DHT22;2169;49.086;9.284;2022-10-23T12:30:18;21.80;63.70
4312;DHT22;2169;49.086;9.284;2022-10-23T12:33:11;21.80;63.50
4312;DHT22;2169;49.086;9.284;2022-10-23T12:36:02;21.90;63.60
4312;DHT22;2169;49.086;9.284;2022-10-23T12:38:31;21.90;63.60
4312;DHT22;2169;49.086;9.284;2022-10-23T12:41:08;21.90;63.60
4312;DHT22;2169;49.086;9.284;2022-10-23T12:43:37;22.00;63.70
4312;DHT22;2169;49.086;9.284;2022-10-23T12:46:27;21.90;63.50
4312;DHT22;2169;49.086;9.284;2022-10-23T12:48:55;22.00;63.40
4312;DHT22;2169;49.086;9.284;2022-10-23T12:55:22;22.00;63.30
4312;DHT22;2169;49.086;9.284;2022-10-23T12:57:52;22.00;63.20
4312;DHT22;2169;49.086;9.284;2022-10-23T13:00:22;22.00;63.10
4312;DHT22;2169;49.086;9.284;2022-10-23T13:03:00;22.10;63.10
4312;DHT22;2169;49.086;9.284;2022-10-23T13:05:28;22.10;63.00
4312;DHT22;2169;49.086;9.284;2022-10-23T13:07:56;22.10;63.10
4312;DHT22;2169;49.086;9.284;2022-10-23T13:10:24;22.20;63.00
4312;DHT22;2169;49.086;9.284;2022-10-23T13:12:55;22.20;62.90
4312;DHT22;2169;49.086;9.284;2022-10-23T13:15:24;22.20;62.70
4312;DHT22;2169;49.086;9.284;2022-10-23T13:18:02;22.20;62.60
4312;DHT22;2169;49.086;9.284;2022-10-23T13:20:31;22.30;62.50
4312;DHT22;2169;49.086;9.284;2022-10-23T13:23:07;22.30;62.40
4312;DHT22;2169;49.086;9.284;2022-10-23T13:25:36;22.30;62.30
4312;DHT22;2169;49.086;9.284;2022-10-23T13:28:20;22.40;62.30
4312;DHT22;2169;49.086;9.284;2022-10-23T13:31:01;22.40;62.20
4312;DHT22;2169;49.086;9.284;2022-10-23T13:33:34;22.50;62.00
4312;DHT22;2169;49.086;9.284;2022-10-23T13:36:04;22.50;62.00
4312;DHT22;2169;49.086;9.284;2022-10-23T13:38:33;22.50;61.90
4312;DHT22;2169;49.086;9.284;2022-10-23T13:41:02;22.50;61.80
4312;DHT22;2169;49.086;9.284;2022-10-23T13:43:32;22.50;61.80
4312;DHT22;2169;49.086;9.284;2022-10-23T13:46:02;22.50;61.70
4312;DHT22;2169;49.086;9.284;2022-10-23T13:48:31;22.60;61.70
4312;DHT22;2169;49.086;9.284;2022-10-23T13:51:09;22.60;61.70
4312;DHT22;2169;49.086;9.284;2022-10-23T13:53:37;22.60;61.70
4312;DHT22;2169;49.086;9.284;2022-10-23T13:56:04;22.60;61.70
4312;DHT22;2169;49.086;9.284;2022-10-23T13:58:32;22.60;61.70
4312;DHT22;2169;49.086;9.284;2022-10-23T14:00:59;22.70;61.80
4312;DHT22;2169;49.086;9.284;2022-10-23T14:03:26;22.60;62.30
4312;DHT22;2169;49.086;9.284;2022-10-23T14:05:53;22.70;61.70
4312;DHT22;2169;49.086;9.284;2022-10-23T14:08:20;22.70;61.60
4312;DHT22;2169;49.086;9.284;2022-10-23T14:10:47;22.70;61.90
4312;DHT22;2169;49.086;9.284;2022-10-23T14:13:15;22.60;62.00
4312;DHT22;2169;49.086;9.284;2022-10-23T14:15:43;22.60;62.30
4312;DHT22;2169;49.086;9.284;2022-10-23T14:18:10;22.60;62.60
4312;DHT22;2169;49.086;9.284;2022-10-23T14:20:37;22.60;62.90
4312;DHT22;2169;49.086;9.284;2022-10-23T14:23:04;22.60;63.10
4312;DHT22;2169;49.086;9.284;2022-10-23T14:25:31;22.60;63.30
4312;DHT22;2169;49.086;9.284;2022-10-23T14:27:57;22.60;63.40
4312;DHT22;2169;49.086;9.284;2022-10-23T14:30:24;22.60;63.50
4312;DHT22;2169;49.086;9.284;2022-10-23T14:32:52;22.60;63.50
4312;DHT22;2169;49.086;9.284;2022-10-23T14:35:19;22.60;63.70
4312;DHT22;2169;49.086;9.284;2022-10-23T14:37:46;22.60;63.90
4312;DHT22;2169;49.086;9.284;2022-10-23T14:40:13;22.50;64.10
4312;DHT22;2169;49.086;9.284;2022-10-23T14:42:55;22.50;64.30
4312;DHT22;2169;49.086;9.284;2022-10-23T14:49:39;22.50;64.70
4312;DHT22;2169;49.086;9.284;2022-10-23T15:02:45;22.30;66.20
4312;DHT22;2169;49.086;9.284;2022-10-23T15:12:01;22.20;66.20
4312;DHT22;2169;49.086;9.284;2022-10-23T15:14:27;22.10;66.40
4312;DHT22;2169;49.086;9.284;2022-10-23T15:16:54;22.10;66.50
4312;DHT22;2169;49.086;9.284;2022-10-23T15:19:21;22.10;66.60
4312;DHT22;2169;49.086;9.284;2022-10-23T15:21:48;22.00;66.60
4312;DHT22;2169;49.086;9.284;2022-10-23T15:24:17;22.00;66.80
4312;DHT22;2169;49.086;9.284;2022-10-23T15:26:45;22.00;66.90
4312;DHT22;2169;49.086;9.284;2022-10-23T15:29:13;21.90;66.90
4312;DHT22;2169;49.086;9.284;2022-10-23T15:31:43;21.90;67.00
4312;DHT22;2169;49.086;9.284;2022-10-23T15:34:11;21.80;66.90
4312;DHT22;2169;49.086;9.284;2022-10-23T15:36:39;21.80;66.90
4312;DHT22;2169;49.086;9.284;2022-10-23T15:39:08;21.80;67.10
4312;DHT22;2169;49.086;9.284;2022-10-23T15:41:37;21.70;67.10
4312;DHT22;2169;49.086;9.284;2022-10-23T15:44:05;21.70;67.20
4312;DHT22;2169;49.086;9.284;2022-10-23T15:46:34;21.60;67.20
4312;DHT22;2169;49.086;9.284;2022-10-23T15:49:02;21.60;67.40
4312;DHT22;2169;49.086;9.284;2022-10-23T15:51:29;21.50;67.30
4312;DHT22;2169;49.086;9.284;2022-10-23T15:53:55;21.50;67.30
4312;DHT22;2169;49.086;9.284;2022-10-23T15:56:22;21.50;67.40
4312;DHT22;2169;49.086;9.284;2022-10-23T15:58:49;21.50;67.50
4312;DHT22;2169;49.086;9.284;2022-10-23T16:01:16;21.40;67.50
4312;DHT22;2169;49.086;9.284;2022-10-23T16:03:44;21.30;67.50
4312;DHT22;2169;49.086;9.284;2022-10-23T16:06:13;21.30;67.60
4312;DHT22;2169;49.086;9.284;2022-10-23T16:08:40;21.30;67.80
4312;DHT22;2169;49.086;9.284;2022-10-23T16:11:14;21.20;67.70
4312;DHT22;2169;49.086;9.284;2022-10-23T16:13:40;21.20;67.80
4312;DHT22;2169;49.086;9.284;2022-10-23T16:16:08;21.10;67.80
4312;DHT22;2169;49.086;9.284;2022-10-23T16:18:35;21.10;67.80
4312;DHT22;2169;49.086;9.284;2022-10-23T16:21:03;21.10;67.80
4312;DHT22;2169;49.086;9.284;2022-10-23T16:23:30;21.00;67.80
4312;DHT22;2169;49.086;9.284;2022-10-23T16:26:01;20.90;67.70
4312;DHT22;2169;49.086;9.284;2022-10-23T16:28:29;20.90;67.70
4312;DHT22;2169;49.086;9.284;2022-10-23T16:30:55;20.80;67.70
4312;DHT22;2169;49.086;9.284;2022-10-23T16:33:22;20.70;67.70
4312;DHT22;2169;49.086;9.284;2022-10-23T16:35:49;20.60;67.80
4312;DHT22;2169;49.086;9.284;2022-10-23T16:38:17;20.60;67.80
4312;DHT22;2169;49.086;9.284;2022-10-23T16:40:50;20.60;67.90
4312;DHT22;2169;49.086;9.284;2022-10-23T16:43:16;20.50;68.00
4312;DHT22;2169;49.086;9.284;2022-10-23T16:45:43;20.50;68.00
4312;DHT22;2169;49.086;9.284;2022-10-23T16:48:10;20.40;67.90
4312;DHT22;2169;49.086;9.284;2022-10-23T16:50:37;20.40;67.90
4312;DHT22;2169;49.086;9.284;2022-10-23T16:53:04;20.30;68.30